sensor_id;sensor_type;location;lat;lon;timestamp;pressure;altitude;pressure_sealevel;temperature;humidity
27712;BME280;2377;51.734;8.950;2023-05-14T00:03:12;98196.53;;;13.34;66.40
27712;BME280;2377;51.734;8.950;2023-05-14T00:05:39;98186.03;;;13.36;66.56
27712;BME280;2377;51.734;8.950;2023-05-14T00:08:06;98190.16;;;13.37;66.72
27712;BME280;2377;51.734;8.950;2023-05-14T00:10:34;98187.03;;;13.35;66.55
27712;BME280;2377;51.734;8.950;2023-05-14T00:13:01;98185.13;;;13.30;66.48
27712;BME280;2377;51.734;8.950;2023-05-14T00:15:28;98188.53;;;13.24;66.80
27712;BME280;2377;51.734;8.950;2023-05-14T00:17:55;98190.66;;;13.15;66.54
27712;BME280;2377;51.734;8.950;2023-05-14T00:20:23;98181.13;;;13.04;66.69
27712;BME280;2377;51.734;8.950;2023-05-14T00:22:50;98185.78;;;12.95;67.19
27712;BME280;2377;51.734;8.950;2023-05-14T00:25:17;98187.44;;;12.89;67.18
27712;BME280;2377;51.734;8.950;2023-05-14T00:27:44;98186.88;;;12.87;67.28
27712;BME280;2377;51.734;8.950;2023-05-14T00:30:12;98185.72;;;12.83;66.84
27712;BME280;2377;51.734;8.950;2023-05-14T00:32:39;98177.47;;;12.81;66.92
27712;BME280;2377;51.734;8.950;2023-05-14T00:35:06;98176.34;;;12.77;67.43
27712;BME280;2377;51.734;8.950;2023-05-14T00:37:35;98171.63;;;12.74;67.33
27712;BME280;2377;51.734;8.950;2023-05-14T00:40:03;98176.19;;;12.72;67.10
27712;BME280;2377;51.734;8.950;2023-05-14T00:42:31;98175.09;;;12.68;66.99
27712;BME280;2377;51.734;8.950;2023-05-14T00:44:58;98166.69;;;12.61;67.49
27712;BME280;2377;51.734;8.950;2023-05-14T00:47:25;98159.28;;;12.53;67.64
27712;BME280;2377;51.734;8.950;2023-05-14T00:49:53;98167.22;;;12.51;67.64
27712;BME280;2377;51.734;8.950;2023-05-14T00:52:21;98162.72;;;12.46;67.53
27712;BME280;2377;51.734;8.950;2023-05-14T00:54:49;98157.44;;;12.41;67.31
27712;BME280;2377;51.734;8.950;2023-05-14T00:57:18;98154.97;;;12.35;67.49
27712;BME280;2377;51.734;8.950;2023-05-14T00:59:46;98155.63;;;12.30;67.49
27712;BME280;2377;51.734;8.950;2023-05-14T01:02:13;98158.59;;;12.27;67.24
27712;BME280;2377;51.734;8.950;2023-05-14T01:04:41;98157.22;;;12.24;67.63
27712;BME280;2377;51.734;8.950;2023-05-14T01:07:18;98150.75;;;12.22;67.52
27712;BME280;2377;51.734;8.950;2023-05-14T01:09:53;98146.06;;;12.19;67.88
27712;BME280;2377;51.734;8.950;2023-05-14T01:12:32;98146.34;;;12.11;68.92
27712;BME280;2377;51.734;8.950;2023-05-14T01:15:06;98153.88;;;12.05;68.69
27712;BME280;2377;51.734;8.950;2023-05-14T01:17:40;98155.28;;;12.01;69.08
27712;BME280;2377;51.734;8.950;2023-05-14T01:20:10;98157.31;;;11.99;68.61
27712;BME280;2377;51.734;8.950;2023-05-14T01:22:39;98148.63;;;12.00;69.09
27712;BME280;2377;51.734;8.950;2023-05-14T01:25:07;98153.59;;;11.95;68.79
27712;BME280;2377;51.734;8.950;2023-05-14T01:27:41;98154.06;;;11.85;69.17
27712;BME280;2377;51.734;8.950;2023-05-14T01:30:20;98149.97;;;11.78;69.07
27712;BME280;2377;51.734;8.950;2023-05-14T01:32:57;98143.97;;;11.66;69.78
27712;BME280;2377;51.734;8.950;2023-05-14T01:35:28;98141.69;;;11.57;70.13
27712;BME280;2377;51.734;8.950;2023-05-14T01:38:00;98133.50;;;11.49;70.74
27712;BME280;2377;51.734;8.950;2023-05-14T01:40:30;98136.53;;;11.39;70.92
27712;BME280;2377;51.734;8.950;2023-05-14T01:43:00;98135.38;;;11.35;70.93
27712;BME280;2377;51.734;8.950;2023-05-14T01:45:29;98137.16;;;11.34;71.18
27712;BME280;2377;51.734;8.950;2023-05-14T01:47:57;98134.78;;;11.33;71.10
27712;BME280;2377;51.734;8.950;2023-05-14T01:50:24;98131.66;;;11.31;71.98
27712;BME280;2377;51.734;8.950;2023-05-14T01:52:51;98130.94;;;11.24;72.02
27712;BME280;2377;51.734;8.950;2023-05-14T01:55:22;98134.91;;;11.19;72.36
27712;BME280;2377;51.734;8.950;2023-05-14T01:57:50;98129.78;;;11.19;72.43
27712;BME280;2377;51.734;8.950;2023-05-14T02:00:18;98129.00;;;11.19;72.77
27712;BME280;2377;51.734;8.950;2023-05-14T02:02:45;98123.94;;;11.12;74.28
27712;BME280;2377;51.734;8.950;2023-05-14T02:05:12;98125.53;;;11.07;73.63
27712;BME280;2377;51.734;8.950;2023-05-14T02:07:40;98129.88;;;11.06;73.68
27712;BME280;2377;51.734;8.950;2023-05-14T02:10:08;98122.56;;;11.10;73.75
27712;BME280;2377;51.734;8.950;2023-05-14T02:12:37;98119.59;;;11.13;74.17
27712;BME280;2377;51.734;8.950;2023-05-14T02:15:05;98118.41;;;11.15;73.62
27712;BME280;2377;51.734;8.950;2023-05-14T02:17:33;98112.88;;;11.18;73.34
27712;BME280;2377;51.734;8.950;2023-05-14T02:20:01;98107.75;;;11.18;72.98
27712;BME280;2377;51.734;8.950;2023-05-14T02:22:28;98112.09;;;11.18;73.15
27712;BME280;2377;51.734;8.950;2023-05-14T02:24:55;98102.03;;;11.16;72.73
27712;BME280;2377;51.734;8.950;2023-05-14T02:27:22;98103.69;;;11.11;73.59
27712;BME280;2377;51.734;8.950;2023-05-14T02:29:51;98105.84;;;11.07;73.81
27712;BME280;2377;51.734;8.950;2023-05-14T02:32:18;98107.28;;;11.03;73.26
27712;BME280;2377;51.734;8.950;2023-05-14T02:34:45;98112.22;;;10.98;73.15
27712;BME280;2377;51.734;8.950;2023-05-14T02:37:12;98107.50;;;10.95;73.31
27712;BME280;2377;51.734;8.950;2023-05-14T02:39:39;98110.34;;;10.87;73.15
27712;BME280;2377;51.734;8.950;2023-05-14T02:42:07;98112.66;;;10.88;73.11
27712;BME280;2377;51.734;8.950;2023-05-14T02:44:34;98105.56;;;10.90;72.76
27712;BME280;2377;51.734;8.950;2023-05-14T02:47:02;98114.44;;;10.88;72.86
27712;BME280;2377;51.734;8.950;2023-05-14T02:49:29;98113.09;;;10.85;72.82
27712;BME280;2377;51.734;8.950;2023-05-14T02:51:56;98111.53;;;10.84;73.14
27712;BME280;2377;51.734;8.950;2023-05-14T02:54:25;98109.16;;;10.83;72.96
27712;BME280;2377;51.734;8.950;2023-05-14T02:56:52;98116.25;;;10.81;73.11
27712;BME280;2377;51.734;8.950;2023-05-14T02:59:19;98111.16;;;10.81;73.43
27712;BME280;2377;51.734;8.950;2023-05-14T03:01:46;98112.34;;;10.78;73.51
27712;BME280;2377;51.734;8.950;2023-05-14T03:04:15;98114.94;;;10.71;73.89
27712;BME280;2377;51.734;8.950;2023-05-14T03:06:42;98105.75;;;10.64;74.79
27712;BME280;2377;51.734;8.950;2023-05-14T03:09:09;98104.00;;;10.57;74.72
27712;BME280;2377;51.734;8.950;2023-05-14T03:11:36;98107.38;;;10.51;74.96
27712;BME280;2377;51.734;8.950;2023-05-14T03:14:03;98107.94;;;10.53;74.92
27712;BME280;2377;51.734;8.950;2023-05-14T03:16:30;98098.53;;;10.54;74.74
27712;BME280;2377;51.734;8.950;2023-05-14T03:18:57;98101.06;;;10.54;74.50
27712;BME280;2377;51.734;8.950;2023-05-14T03:21:25;98094.38;;;10.53;74.77
27712;BME280;2377;51.734;8.950;2023-05-14T03:23:53;98095.97;;;10.54;74.79
27712;BME280;2377;51.734;8.950;2023-05-14T03:26:20;98107.16;;;10.53;74.80
27712;BME280;2377;51.734;8.950;2023-05-14T03:28:47;98102.47;;;10.50;74.65
27712;BME280;2377;51.734;8.950;2023-05-14T03:31:14;98096.34;;;10.51;74.59
27712;BME280;2377;51.734;8.950;2023-05-14T03:33:41;98087.91;;;10.50;74.83
27712;BME280;2377;51.734;8.950;2023-05-14T03:36:08;98095.56;;;10.50;75.23
27712;BME280;2377;51.734;8.950;2023-05-14T03:38:37;98092.25;;;10.50;75.75
27712;BME280;2377;51.734;8.950;2023-05-14T03:41:04;98087.13;;;10.50;76.11
27712;BME280;2377;51.734;8.950;2023-05-14T03:43:31;98083.00;;;10.49;76.32
27712;BME280;2377;51.734;8.950;2023-05-14T03:45:58;98091.47;;;10.49;76.39
27712;BME280;2377;51.734;8.950;2023-05-14T03:48:25;98086.34;;;10.49;76.10
27712;BME280;2377;51.734;8.950;2023-05-14T03:50:52;98093.78;;;10.51;76.28
27712;BME280;2377;51.734;8.950;2023-05-14T03:53:19;98096.34;;;10.51;76.04
27712;BME280;2377;51.734;8.950;2023-05-14T03:55:48;98094.78;;;10.50;76.56
27712;BME280;2377;51.734;8.950;2023-05-14T03:58:15;98090.47;;;10.50;76.39
27712;BME280;2377;51.734;8.950;2023-05-14T04:00:43;98091.63;;;10.54;76.51
27712;BME280;2377;51.734;8.950;2023-05-14T04:03:10;98089.84;;;10.55;76.35
27712;BME280;2377;51.734;8.950;2023-05-14T04:05:37;98088.06;;;10.55;76.87
27712;BME280;2377;51.734;8.950;2023-05-14T04:08:04;98084.13;;;10.60;76.69
27712;BME280;2377;51.734;8.950;2023-05-14T04:10:31;98094.94;;;10.62;77.00
27712;BME280;2377;51.734;8.950;2023-05-14T04:13:00;98087.06;;;10.63;77.05
27712;BME280;2377;51.734;8.950;2023-05-14T04:15:27;98084.50;;;10.63;77.18
27712;BME280;2377;51.734;8.950;2023-05-14T04:17:54;98087.84;;;10.64;77.44
27712;BME280;2377;51.734;8.950;2023-05-14T04:20:21;98086.81;;;10.71;77.91
27712;BME280;2377;51.734;8.950;2023-05-14T04:22:48;98088.34;;;10.79;78.02
27712;BME280;2377;51.734;8.950;2023-05-14T04:25:15;98081.97;;;10.88;77.86
27712;BME280;2377;51.734;8.950;2023-05-14T04:27:43;98085.84;;;10.97;78.15
27712;BME280;2377;51.734;8.950;2023-05-14T04:30:12;98088.94;;;11.06;78.31
27712;BME280;2377;51.734;8.950;2023-05-14T04:32:39;98088.47;;;11.16;78.67
27712;BME280;2377;51.734;8.950;2023-05-14T04:35:07;98082.09;;;11.25;78.73
27712;BME280;2377;51.734;8.950;2023-05-14T04:37:35;98087.97;;;11.32;78.92
27712;BME280;2377;51.734;8.950;2023-05-14T04:40:05;98075.69;;;11.41;79.27
27712;BME280;2377;51.734;8.950;2023-05-14T04:42:32;98079.75;;;11.49;79.13
27712;BME280;2377;51.734;8.950;2023-05-14T04:45:00;98078.09;;;11.54;79.51
27712;BME280;2377;51.734;8.950;2023-05-14T04:47:29;98077.28;;;11.60;79.62
27712;BME280;2377;51.734;8.950;2023-05-14T04:49:56;98077.97;;;11.68;80.01
27712;BME280;2377;51.734;8.950;2023-05-14T04:52:24;98086.38;;;11.75;79.96
27712;BME280;2377;51.734;8.950;2023-05-14T04:54:51;98086.31;;;11.81;79.77
27712;BME280;2377;51.734;8.950;2023-05-14T04:57:18;98083.72;;;11.88;80.27
27712;BME280;2377;51.734;8.950;2023-05-14T04:59:45;98081.88;;;11.95;80.33
27712;BME280;2377;51.734;8.950;2023-05-14T05:02:12;98080.78;;;12.03;80.20
27712;BME280;2377;51.734;8.950;2023-05-14T05:04:41;98078.94;;;12.10;80.05
27712;BME280;2377;51.734;8.950;2023-05-14T05:07:08;98083.22;;;12.16;79.97
27712;BME280;2377;51.734;8.950;2023-05-14T05:09:35;98085.91;;;12.21;80.66
27712;BME280;2377;51.734;8.950;2023-05-14T05:12:02;98090.19;;;12.27;80.37
27712;BME280;2377;51.734;8.950;2023-05-14T05:14:30;98085.75;;;12.35;80.53
27712;BME280;2377;51.734;8.950;2023-05-14T05:16:57;98083.88;;;12.42;80.73
27712;BME280;2377;51.734;8.950;2023-05-14T05:19:24;98086.34;;;12.48;80.41
27712;BME280;2377;51.734;8.950;2023-05-14T05:21:52;98081.13;;;12.55;80.56
27712;BME280;2377;51.734;8.950;2023-05-14T05:24:20;98066.69;;;12.61;80.41
27712;BME280;2377;51.734;8.950;2023-05-14T05:26:47;98066.03;;;12.65;80.42
27712;BME280;2377;51.734;8.950;2023-05-14T05:29:15;98068.72;;;12.71;80.43
27712;BME280;2377;51.734;8.950;2023-05-14T05:31:42;98078.88;;;12.77;80.50
27712;BME280;2377;51.734;8.950;2023-05-14T05:34:09;98080.78;;;12.82;80.91
27712;BME280;2377;51.734;8.950;2023-05-14T05:36:36;98079.13;;;12.87;81.26
27712;BME280;2377;51.734;8.950;2023-05-14T05:39:04;98076.09;;;12.90;81.15
27712;BME280;2377;51.734;8.950;2023-05-14T05:41:32;98082.94;;;12.97;81.01
27712;BME280;2377;51.734;8.950;2023-05-14T05:43:59;98076.13;;;13.02;81.11
27712;BME280;2377;51.734;8.950;2023-05-14T05:46:26;98075.69;;;13.05;80.85
27712;BME280;2377;51.734;8.950;2023-05-14T05:48:53;98081.72;;;13.11;80.55
27712;BME280;2377;51.734;8.950;2023-05-14T05:51:20;98084.97;;;13.18;80.54
27712;BME280;2377;51.734;8.950;2023-05-14T05:53:47;98077.38;;;13.23;80.58
27712;BME280;2377;51.734;8.950;2023-05-14T05:56:15;98076.53;;;13.29;80.11
27712;BME280;2377;51.734;8.950;2023-05-14T05:58:42;98084.13;;;13.36;80.07
27712;BME280;2377;51.734;8.950;2023-05-14T06:01:09;98086.59;;;13.43;80.38
27712;BME280;2377;51.734;8.950;2023-05-14T06:03:36;98081.31;;;13.49;79.87
27712;BME280;2377;51.734;8.950;2023-05-14T06:06:03;98087.91;;;13.57;79.92
27712;BME280;2377;51.734;8.950;2023-05-14T06:08:31;98087.00;;;13.63;80.15
27712;BME280;2377;51.734;8.950;2023-05-14T06:10:58;98087.91;;;13.69;80.04
27712;BME280;2377;51.734;8.950;2023-05-14T06:13:26;98084.22;;;13.77;79.44
27712;BME280;2377;51.734;8.950;2023-05-14T06:15:53;98094.38;;;13.83;79.32
27712;BME280;2377;51.734;8.950;2023-05-14T06:18:20;98097.81;;;13.89;78.85
27712;BME280;2377;51.734;8.950;2023-05-14T06:20:47;98093.53;;;13.94;78.77
27712;BME280;2377;51.734;8.950;2023-05-14T06:23:14;98106.53;;;14.00;78.61
27712;BME280;2377;51.734;8.950;2023-05-14T06:25:40;98103.03;;;14.06;78.25
27712;BME280;2377;51.734;8.950;2023-05-14T06:28:07;98106.25;;;14.13;78.16
27712;BME280;2377;51.734;8.950;2023-05-14T06:30:36;98113.06;;;14.19;78.86
27712;BME280;2377;51.734;8.950;2023-05-14T06:33:03;98108.47;;;14.21;77.55
27712;BME280;2377;51.734;8.950;2023-05-14T06:35:29;98115.50;;;14.26;77.70
27712;BME280;2377;51.734;8.950;2023-05-14T06:37:56;98115.59;;;14.31;77.99
27712;BME280;2377;51.734;8.950;2023-05-14T06:40:23;98110.53;;;14.36;78.20
27712;BME280;2377;51.734;8.950;2023-05-14T06:42:50;98113.75;;;14.43;77.74
27712;BME280;2377;51.734;8.950;2023-05-14T06:45:17;98114.09;;;14.47;77.23
27712;BME280;2377;51.734;8.950;2023-05-14T06:47:45;98112.97;;;14.54;77.28
27712;BME280;2377;51.734;8.950;2023-05-14T06:50:12;98107.69;;;14.61;76.80
27712;BME280;2377;51.734;8.950;2023-05-14T06:52:39;98111.00;;;14.73;77.09
27712;BME280;2377;51.734;8.950;2023-05-14T06:55:08;98111.72;;;14.86;76.52
27712;BME280;2377;51.734;8.950;2023-05-14T06:57:35;98109.31;;;14.96;75.93
27712;BME280;2377;51.734;8.950;2023-05-14T07:00:03;98109.31;;;15.13;75.87
27712;BME280;2377;51.734;8.950;2023-05-14T07:02:30;98115.50;;;15.29;75.54
27712;BME280;2377;51.734;8.950;2023-05-14T07:04:58;98115.47;;;15.46;75.16
27712;BME280;2377;51.734;8.950;2023-05-14T07:07:25;98118.03;;;15.62;74.51
27712;BME280;2377;51.734;8.950;2023-05-14T07:09:52;98121.16;;;15.81;74.33
27712;BME280;2377;51.734;8.950;2023-05-14T07:12:19;98131.94;;;16.00;74.22
27712;BME280;2377;51.734;8.950;2023-05-14T07:14:46;98116.97;;;16.19;73.47
27712;BME280;2377;51.734;8.950;2023-05-14T07:17:12;98124.41;;;16.38;72.73
27712;BME280;2377;51.734;8.950;2023-05-14T07:19:39;98123.56;;;16.59;72.04
27712;BME280;2377;51.734;8.950;2023-05-14T07:22:08;98121.88;;;16.70;71.69
27712;BME280;2377;51.734;8.950;2023-05-14T07:24:34;98120.03;;;16.65;70.90
27712;BME280;2377;51.734;8.950;2023-05-14T07:27:02;98118.91;;;16.56;70.27
27712;BME280;2377;51.734;8.950;2023-05-14T07:29:29;98112.63;;;16.47;71.16
27712;BME280;2377;51.734;8.950;2023-05-14T07:31:55;98111.78;;;16.41;71.59
27712;BME280;2377;51.734;8.950;2023-05-14T07:34:22;98111.97;;;16.35;70.67
27712;BME280;2377;51.734;8.950;2023-05-14T07:36:49;98108.38;;;16.36;70.76
27712;BME280;2377;51.734;8.950;2023-05-14T07:39:18;98105.78;;;16.36;70.49
27712;BME280;2377;51.734;8.950;2023-05-14T07:41:44;98108.91;;;16.38;71.12
27712;BME280;2377;51.734;8.950;2023-05-14T07:44:11;98110.22;;;16.40;70.33
27712;BME280;2377;51.734;8.950;2023-05-14T07:46:39;98102.09;;;16.54;70.13
27712;BME280;2377;51.734;8.950;2023-05-14T07:49:06;98106.84;;;16.89;70.58
27712;BME280;2377;51.734;8.950;2023-05-14T07:51:33;98096.78;;;17.25;70.04
27712;BME280;2377;51.734;8.950;2023-05-14T07:54:00;98100.06;;;17.52;69.69
27712;BME280;2377;51.734;8.950;2023-05-14T07:56:28;98106.91;;;17.79;68.74
27712;BME280;2377;51.734;8.950;2023-05-14T07:58:55;98100.84;;;18.06;68.40
27712;BME280;2377;51.734;8.950;2023-05-14T08:01:22;98093.66;;;18.18;67.79
27712;BME280;2377;51.734;8.950;2023-05-14T08:03:49;98092.91;;;18.23;66.26
27712;BME280;2377;51.734;8.950;2023-05-14T08:06:16;98095.75;;;18.36;66.64
27712;BME280;2377;51.734;8.950;2023-05-14T08:08:45;98093.22;;;18.52;65.44
27712;BME280;2377;51.734;8.950;2023-05-14T08:11:12;98086.25;;;18.68;65.53
27712;BME280;2377;51.734;8.950;2023-05-14T08:13:40;98089.13;;;18.87;66.13
27712;BME280;2377;51.734;8.950;2023-05-14T08:16:07;98086.28;;;18.98;62.70
27712;BME280;2377;51.734;8.950;2023-05-14T08:18:34;98096.38;;;19.10;63.84
27712;BME280;2377;51.734;8.950;2023-05-14T08:21:01;98089.91;;;19.18;62.84
27712;BME280;2377;51.734;8.950;2023-05-14T08:23:28;98086.25;;;19.29;60.82
27712;BME280;2377;51.734;8.950;2023-05-14T08:25:55;98083.63;;;19.39;62.24
27712;BME280;2377;51.734;8.950;2023-05-14T08:28:21;98084.41;;;19.50;59.83
27712;BME280;2377;51.734;8.950;2023-05-14T08:30:50;98078.69;;;19.48;59.07
27712;BME280;2377;51.734;8.950;2023-05-14T08:33:17;98086.47;;;19.53;60.01
27712;BME280;2377;51.734;8.950;2023-05-14T08:35:44;98082.25;;;19.68;61.50
27712;BME280;2377;51.734;8.950;2023-05-14T08:38:10;98083.28;;;19.82;58.20
27712;BME280;2377;51.734;8.950;2023-05-14T08:40:37;98073.44;;;19.79;58.43
27712;BME280;2377;51.734;8.950;2023-05-14T08:43:06;98083.25;;;19.87;59.50
27712;BME280;2377;51.734;8.950;2023-05-14T08:45:35;98082.94;;;20.04;59.02
27712;BME280;2377;51.734;8.950;2023-05-14T08:48:09;98080.84;;;20.11;56.39
27712;BME280;2377;51.734;8.950;2023-05-14T08:50:40;98078.69;;;20.23;56.37
27712;BME280;2377;51.734;8.950;2023-05-14T08:53:08;98080.66;;;20.42;57.28
27712;BME280;2377;51.734;8.950;2023-05-14T08:55:36;98073.66;;;20.42;54.42
27712;BME280;2377;51.734;8.950;2023-05-14T08:58:03;98075.22;;;20.38;56.83
27712;BME280;2377;51.734;8.950;2023-05-14T09:00:30;98076.13;;;20.63;58.70
27712;BME280;2377;51.734;8.950;2023-05-14T09:02:58;98075.25;;;20.78;58.73
27712;BME280;2377;51.734;8.950;2023-05-14T09:05:27;98074.16;;;20.84;55.48
27712;BME280;2377;51.734;8.950;2023-05-14T09:07:54;98066.94;;;20.76;52.41
27712;BME280;2377;51.734;8.950;2023-05-14T09:10:21;98065.81;;;20.47;54.10
27712;BME280;2377;51.734;8.950;2023-05-14T09:12:48;98061.44;;;20.43;55.46
27712;BME280;2377;51.734;8.950;2023-05-14T09:15:18;98058.59;;;20.39;54.44
27712;BME280;2377;51.734;8.950;2023-05-14T09:17:45;98059.13;;;20.41;54.92
27712;BME280;2377;51.734;8.950;2023-05-14T09:20:14;98061.22;;;20.39;54.55
27712;BME280;2377;51.734;8.950;2023-05-14T09:22:43;98059.63;;;20.38;55.24
27712;BME280;2377;51.734;8.950;2023-05-14T09:25:10;98051.66;;;20.30;54.44
27712;BME280;2377;51.734;8.950;2023-05-14T09:27:38;98050.69;;;20.15;53.47
27712;BME280;2377;51.734;8.950;2023-05-14T09:30:10;98048.16;;;20.05;55.11
27712;BME280;2377;51.734;8.950;2023-05-14T09:32:39;98044.28;;;20.02;53.71
27712;BME280;2377;51.734;8.950;2023-05-14T09:35:10;98045.34;;;20.01;55.38
27712;BME280;2377;51.734;8.950;2023-05-14T09:37:42;98053.50;;;20.24;55.66
27712;BME280;2377;51.734;8.950;2023-05-14T09:40:10;98044.66;;;20.30;55.48
27712;BME280;2377;51.734;8.950;2023-05-14T09:42:37;98049.53;;;20.32;56.93
27712;BME280;2377;51.734;8.950;2023-05-14T09:45:06;98053.50;;;20.24;55.56
27712;BME280;2377;51.734;8.950;2023-05-14T09:47:34;98051.91;;;20.28;54.61
27712;BME280;2377;51.734;8.950;2023-05-14T09:50:01;98048.22;;;20.34;54.77
27712;BME280;2377;51.734;8.950;2023-05-14T09:52:28;98047.16;;;20.40;55.45
27712;BME280;2377;51.734;8.950;2023-05-14T09:54:56;98041.75;;;20.32;53.53
27712;BME280;2377;51.734;8.950;2023-05-14T09:57:23;98042.84;;;20.25;53.94
27712;BME280;2377;51.734;8.950;2023-05-14T09:59:52;98034.28;;;20.25;55.16
27712;BME280;2377;51.734;8.950;2023-05-14T10:02:23;98035.00;;;20.36;54.71
27712;BME280;2377;51.734;8.950;2023-05-14T10:04:53;98043.28;;;20.38;54.62
27712;BME280;2377;51.734;8.950;2023-05-14T10:07:28;98031.28;;;20.47;55.72
27712;BME280;2377;51.734;8.950;2023-05-14T10:10:02;98027.88;;;20.52;52.42
27712;BME280;2377;51.734;8.950;2023-05-14T10:12:36;98021.66;;;20.47;53.26
27712;BME280;2377;51.734;8.950;2023-05-14T10:15:12;98027.16;;;20.46;53.77
27712;BME280;2377;51.734;8.950;2023-05-14T10:17:47;98033.09;;;20.46;54.21
27712;BME280;2377;51.734;8.950;2023-05-14T10:20:15;98028.19;;;20.45;53.74
27712;BME280;2377;51.734;8.950;2023-05-14T10:22:42;98029.50;;;20.42;54.06
27712;BME280;2377;51.734;8.950;2023-05-14T10:25:11;98017.47;;;20.57;53.77
27712;BME280;2377;51.734;8.950;2023-05-14T10:27:39;98018.44;;;20.66;52.77
27712;BME280;2377;51.734;8.950;2023-05-14T10:30:11;98017.38;;;20.67;52.93
27712;BME280;2377;51.734;8.950;2023-05-14T10:32:38;98016.09;;;20.69;52.52
27712;BME280;2377;51.734;8.950;2023-05-14T10:35:16;98017.84;;;20.74;51.96
27712;BME280;2377;51.734;8.950;2023-05-14T10:37:43;98017.81;;;20.79;51.13
27712;BME280;2377;51.734;8.950;2023-05-14T10:40:13;98008.75;;;20.72;50.04
27712;BME280;2377;51.734;8.950;2023-05-14T10:42:41;98005.72;;;20.64;49.46
27712;BME280;2377;51.734;8.950;2023-05-14T10:45:10;98002.59;;;20.62;50.09
27712;BME280;2377;51.734;8.950;2023-05-14T10:47:41;98004.38;;;20.67;50.04
27712;BME280;2377;51.734;8.950;2023-05-14T10:50:11;98006.34;;;20.80;51.32
27712;BME280;2377;51.734;8.950;2023-05-14T10:52:41;97993.88;;;20.82;51.20
27712;BME280;2377;51.734;8.950;2023-05-14T10:55:15;97991.72;;;20.89;52.70
27712;BME280;2377;51.734;8.950;2023-05-14T10:57:44;97990.13;;;20.94;52.09
27712;BME280;2377;51.734;8.950;2023-05-14T11:00:14;97984.44;;;20.92;50.19
27712;BME280;2377;51.734;8.950;2023-05-14T11:02:43;97987.13;;;20.81;51.50
27712;BME280;2377;51.734;8.950;2023-05-14T11:05:13;97984.31;;;20.78;51.54
27712;BME280;2377;51.734;8.950;2023-05-14T11:07:44;97982.34;;;20.94;52.72
27712;BME280;2377;51.734;8.950;2023-05-14T11:10:14;97978.47;;;21.15;54.58
27712;BME280;2377;51.734;8.950;2023-05-14T11:12:45;97983.00;;;21.28;52.47
27712;BME280;2377;51.734;8.950;2023-05-14T11:15:15;97985.00;;;21.37;52.61
27712;BME280;2377;51.734;8.950;2023-05-14T11:17:44;97974.56;;;21.42;52.96
27712;BME280;2377;51.734;8.950;2023-05-14T11:20:12;97980.69;;;21.51;51.55
27712;BME280;2377;51.734;8.950;2023-05-14T11:22:42;97973.31;;;21.58;50.27
27712;BME280;2377;51.734;8.950;2023-05-14T11:25:11;97969.94;;;21.58;48.23
27712;BME280;2377;51.734;8.950;2023-05-14T11:27:40;97968.19;;;21.53;47.99
27712;BME280;2377;51.734;8.950;2023-05-14T11:30:14;97970.34;;;21.46;49.54
27712;BME280;2377;51.734;8.950;2023-05-14T11:32:43;97961.88;;;21.59;51.04
27712;BME280;2377;51.734;8.950;2023-05-14T11:35:11;97958.00;;;21.76;49.40
27712;BME280;2377;51.734;8.950;2023-05-14T11:37:38;97956.78;;;21.87;48.68
27712;BME280;2377;51.734;8.950;2023-05-14T11:40:08;97953.47;;;22.00;48.50
27712;BME280;2377;51.734;8.950;2023-05-14T11:42:39;97947.25;;;22.15;46.84
27712;BME280;2377;51.734;8.950;2023-05-14T11:45:11;97942.97;;;22.05;44.04
27712;BME280;2377;51.734;8.950;2023-05-14T11:47:40;97942.66;;;21.93;44.52
27712;BME280;2377;51.734;8.950;2023-05-14T11:50:08;97943.72;;;21.92;46.30
27712;BME280;2377;51.734;8.950;2023-05-14T11:52:37;97939.56;;;21.91;49.24
27712;BME280;2377;51.734;8.950;2023-05-14T11:55:09;97935.19;;;21.86;48.95
27712;BME280;2377;51.734;8.950;2023-05-14T11:57:36;97939.97;;;21.79;50.10
27712;BME280;2377;51.734;8.950;2023-05-14T12:00:07;97933.03;;;21.74;50.75
27712;BME280;2377;51.734;8.950;2023-05-14T12:02:40;97929.38;;;21.76;49.49
27712;BME280;2377;51.734;8.950;2023-05-14T12:05:11;97936.13;;;21.77;49.25
27712;BME280;2377;51.734;8.950;2023-05-14T12:07:38;97941.81;;;21.79;49.73
27712;BME280;2377;51.734;8.950;2023-05-14T12:10:07;97934.28;;;21.77;48.02
27712;BME280;2377;51.734;8.950;2023-05-14T12:12:35;97934.59;;;21.76;46.52
27712;BME280;2377;51.734;8.950;2023-05-14T12:15:10;97927.81;;;21.74;45.86
27712;BME280;2377;51.734;8.950;2023-05-14T12:17:39;97935.69;;;21.69;44.53
27712;BME280;2377;51.734;8.950;2023-05-14T12:20:09;97923.03;;;21.63;44.58
27712;BME280;2377;51.734;8.950;2023-05-14T12:22:37;97920.94;;;21.65;44.37
27712;BME280;2377;51.734;8.950;2023-05-14T12:25:11;97914.81;;;21.56;47.38
27712;BME280;2377;51.734;8.950;2023-05-14T12:27:39;97909.84;;;21.59;48.18
27712;BME280;2377;51.734;8.950;2023-05-14T12:30:07;97909.09;;;21.53;45.98
27712;BME280;2377;51.734;8.950;2023-05-14T12:32:37;97907.72;;;21.37;46.50
27712;BME280;2377;51.734;8.950;2023-05-14T12:35:07;97899.22;;;21.31;47.66
27712;BME280;2377;51.734;8.950;2023-05-14T12:37:34;97892.28;;;21.27;46.39
27712;BME280;2377;51.734;8.950;2023-05-14T12:40:02;97904.56;;;21.21;47.41
27712;BME280;2377;51.734;8.950;2023-05-14T12:42:31;97900.84;;;21.27;49.10
27712;BME280;2377;51.734;8.950;2023-05-14T12:44:58;97895.78;;;21.36;48.31
27712;BME280;2377;51.734;8.950;2023-05-14T12:47:30;97898.00;;;21.48;49.82
27712;BME280;2377;51.734;8.950;2023-05-14T12:49:57;97902.72;;;21.46;48.12
27712;BME280;2377;51.734;8.950;2023-05-14T12:52:25;97892.13;;;21.37;47.83
27712;BME280;2377;51.734;8.950;2023-05-14T12:54:52;97883.13;;;21.29;46.51
27712;BME280;2377;51.734;8.950;2023-05-14T12:57:20;97883.63;;;21.31;47.35
27712;BME280;2377;51.734;8.950;2023-05-14T12:59:46;97883.56;;;21.37;48.04
27712;BME280;2377;51.734;8.950;2023-05-14T13:02:13;97887.09;;;21.46;48.95
27712;BME280;2377;51.734;8.950;2023-05-14T13:04:42;97891.81;;;21.44;48.16
27712;BME280;2377;51.734;8.950;2023-05-14T13:07:09;97891.81;;;21.44;48.42
27712;BME280;2377;51.734;8.950;2023-05-14T13:09:37;97888.19;;;21.45;49.74
27712;BME280;2377;51.734;8.950;2023-05-14T13:12:05;97893.84;;;21.47;50.99
27712;BME280;2377;51.734;8.950;2023-05-14T13:14:32;97884.50;;;21.46;50.35
27712;BME280;2377;51.734;8.950;2023-05-14T13:17:01;97892.31;;;21.46;50.65